Terminal Aerodrome Forecast
Issued by NWS

Home | Current Version | Previous Version | Text Only | Print | Product List | Glossary On
Versions: 1 2 3 4 5 6 7 8 9 10 11 12 13 14 15 16 17 18 19 20 21 22 23 24 25 26 27 28 29 30 31 32 33 34 35 36 37 38
883
FTUS45 KGJT 200029 AAA
TAFASE
TAF AMD
KASE 200029Z 2000/2024 00000KT P6SM VCSH OVC060
     FM200100 25004KT 2SM -SHSN OVC020
      TEMPO 2001/2005 1/2SM -SN FZFG BKN008 OVC020
     FM200500 23004KT 4SM -SHSN OVC025
     FM201000 22004KT 3SM -SN BR OVC020
     FM201800 28006KT 6SM -SN OVC020=

USA.gov is the U.S. government's official web portal to all federal, state and local government web resources and services.